Time;durP1;ratioP1;P1;durP2;ratioP2;P2;SDS_P1;SDS_P2;PMS_P1;PMS_P2;Temp;Humidity;BMP_temperature;BMP_pressure;BME280_temperature;BME280_humidity;BME280_pressure;Samples;Min_cycle;Max_cycle;Signal;HPM_P1;HPM_P2
2021/06/12 00:01:42;;;;;;;14.77;8.18;;;20.10;99.90;;;;;;5081840;28;20483;-52
2021/06/12 00:04:08;;;;;;;13.15;8.23;;;19.90;99.90;;;;;;5091127;28;20028;-58
2021/06/12 00:06:33;;;;;;;14.38;8.90;;;19.90;99.90;;;;;;5092888;28;20031;-57
2021/06/12 00:08:59;;;;;;;14.95;8.75;;;19.80;99.90;;;;;;5093552;28;20039;-53
2021/06/12 00:11:25;;;;;;;15.45;8.98;;;19.90;99.90;;;;;;5092187;28;20117;-54
2021/06/12 00:13:50;;;;;;;12.93;8.73;;;19.90;99.90;;;;;;5094890;28;20088;-54
2021/06/12 00:16:18;;;;;;;18.33;9.48;;;20.00;99.90;;;;;;5098607;28;20483;-55
2021/06/12 00:18:44;;;;;;;16.33;9.73;;;20.00;99.90;;;;;;5092603;28;20024;-55
2021/06/12 00:21:09;;;;;;;17.48;9.65;;;20.00;99.90;;;;;;5092150;28;20391;-53
2021/06/12 00:23:35;;;;;;;14.95;8.23;;;19.90;99.90;;;;;;5091966;28;20506;-53
2021/06/12 00:26:00;;;;;;;19.00;9.57;;;19.90;99.90;;;;;;5092330;28;20491;-54
2021/06/12 00:28:26;;;;;;;16.13;10.27;;;19.90;99.90;;;;;;5092380;28;20031;-52
2021/06/12 00:30:51;;;;;;;16.80;9.48;;;20.00;99.90;;;;;;5094574;28;20047;-53
2021/06/12 00:33:17;;;;;;;19.17;9.15;;;20.00;99.90;;;;;;5094243;28;20028;-55
2021/06/12 00:35:43;;;;;;;16.10;8.95;;;20.00;99.90;;;;;;5101571;28;20036;-54
2021/06/12 00:38:09;;;;;;;18.50;10.32;;;20.00;99.90;;;;;;5092607;28;20568;-52
2021/06/12 00:40:35;;;;;;;23.35;10.93;;;20.10;99.90;;;;;;5092096;28;20042;-53
2021/06/12 00:43:01;;;;;;;20.88;10.23;;;20.10;99.90;;;;;;5088766;28;20114;-52
2021/06/12 00:45:29;;;;;;;18.45;11.10;;;19.90;99.90;;;;;;5092362;28;20450;-50
2021/06/12 00:47:55;;;;;;;24.20;12.18;;;19.80;99.90;;;;;;5094308;28;20051;-54
2021/06/12 00:50:22;;;;;;;20.08;11.05;;;19.70;99.90;;;;;;5092058;28;20024;-52
2021/06/12 00:52:48;;;;;;;19.98;11.40;;;19.60;99.90;;;;;;5096565;28;20483;-54
2021/06/12 00:55:15;;;;;;;22.40;12.20;;;19.60;99.90;;;;;;5092975;28;20054;-57
2021/06/12 00:57:42;;;;;;;23.40;12.18;;;19.50;99.90;;;;;;5092144;28;20027;-53
2021/06/12 01:00:14;;;;;;;21.90;11.65;;;19.50;99.90;;;;;;5092330;28;20471;-53
2021/06/12 01:02:39;;;;;;;24.15;13.18;;;19.50;99.90;;;;;;5095444;28;20095;-51
2021/06/12 01:05:08;;;;;;;22.13;11.48;;;19.50;99.90;;;;;;5092694;28;20107;-52
2021/06/12 01:07:35;;;;;;;23.65;12.38;;;19.40;99.90;;;;;;5091724;28;20135;-50
2021/06/12 01:10:00;;;;;;;25.27;12.55;;;19.40;99.90;;;;;;5093399;28;20021;-54
2021/06/12 01:13:04;;;;;;;20.83;11.40;;;19.30;99.90;;;;;;5090715;28;20032;-55
2021/06/12 01:15:51;;;;;;;22.23;11.85;;;19.30;99.90;;;;;;5087534;28;20814;-52
2021/06/12 01:18:19;;;;;;;20.35;12.32;;;19.20;99.90;;;;;;5097898;28;20584;-54
2021/06/12 01:21:07;;;;;;;25.52;12.15;;;19.20;99.90;;;;;;5091151;28;20021;-50
2021/06/12 01:24:00;;;;;;;19.27;11.10;;;19.10;99.90;;;;;;5088782;28;20395;-50
2021/06/12 01:26:44;;;;;;;21.17;11.85;;;19.10;99.90;;;;;;5095840;28;20028;-55
2021/06/12 01:29:35;;;;;;;21.85;11.50;;;19.10;99.90;;;;;;5090968;28;20028;-52
2021/06/12 01:32:02;;;;;;;24.65;11.77;;;19.00;99.90;;;;;;5086423;28;20502;-50
2021/06/12 01:34:29;;;;;;;22.23;12.55;;;19.00;99.90;;;;;;5089827;28;20440;-54
2021/06/12 01:39:24;;;;;;;20.38;11.70;;;18.90;99.90;;;;;;5026512;22;20078;-64
2021/06/12 01:41:53;;;;;;;22.98;12.48;;;18.90;99.90;;;;;;5001793;28;20033;-65
2021/06/12 01:44:20;;;;;;;20.20;12.10;;;18.80;99.90;;;;;;5006294;28;20079;-64
2021/06/12 01:46:47;;;;;;;22.58;12.77;;;18.80;99.90;;;;;;5006900;28;20030;-65
2021/06/12 01:49:14;;;;;;;22.35;12.77;;;18.70;99.90;;;;;;4988987;28;20057;-65
2021/06/12 01:51:40;;;;;;;25.02;13.60;;;18.70;99.90;;;;;;4987658;28;20458;-65
2021/06/12 01:54:06;;;;;;;25.45;13.75;;;18.70;99.90;;;;;;4983496;28;20516;-65
2021/06/12 01:56:32;;;;;;;20.52;12.80;;;18.60;99.90;;;;;;4987261;28;20101;-65
2021/06/12 01:58:58;;;;;;;18.73;11.68;;;18.70;99.90;;;;;;4986496;28;20034;-64
2021/06/12 02:01:25;;;;;;;24.90;12.07;;;18.70;99.90;;;;;;4986737;28;20041;-65
2021/06/12 02:03:53;;;;;;;21.67;12.73;;;18.80;99.90;;;;;;4986358;28;20042;-65
2021/06/12 02:06:19;;;;;;;20.08;11.63;;;18.80;99.90;;;;;;4987519;28;20493;-65
2021/06/12 02:08:45;;;;;;;24.02;12.30;;;18.80;99.90;;;;;;4987396;28;20030;-64
2021/06/12 02:11:17;;;;;;;22.77;12.30;;;18.80;99.90;;;;;;4987152;28;20165;-65
2021/06/12 02:13:43;;;;;;;24.77;11.63;;;18.80;99.90;;;;;;4986218;28;20110;-65
2021/06/12 02:16:11;;;;;;;22.73;12.23;;;18.80;99.90;;;;;;4987034;28;20060;-65
2021/06/12 02:18:38;;;;;;;23.00;12.40;;;18.90;99.90;;;;;;4984153;28;20374;-64
2021/06/12 02:21:05;;;;;;;23.30;13.20;;;18.90;99.90;;;;;;4986986;28;20068;-64
2021/06/12 02:23:31;;;;;;;24.70;12.23;;;18.90;99.90;;;;;;4978004;28;20030;-64
2021/06/12 02:25:57;;;;;;;41.08;17.25;;;18.90;99.90;;;;;;4987323;28;20026;-64
2021/06/12 02:28:24;;;;;;;26.02;13.55;;;18.90;99.90;;;;;;4985982;28;20114;-64
2021/06/12 02:31:04;;;;;;;32.90;14.63;;;19.00;99.90;;;;;;4985800;28;20026;-64
2021/06/12 02:33:32;;;;;;;34.65;17.98;;;19.00;99.90;;;;;;4981052;28;20038;-64
2021/06/12 02:36:00;;;;;;;41.10;19.75;;;19.10;99.90;;;;;;4986324;28;20037;-64
2021/06/12 02:38:26;;;;;;;38.03;16.52;;;19.20;99.90;;;;;;4981315;28;20030;-64
2021/06/12 02:40:51;;;;;;;33.45;17.77;;;19.20;99.90;;;;;;4981612;28;20037;-62
2021/06/12 02:43:17;;;;;;;38.85;18.45;;;19.20;99.90;;;;;;4985411;28;20066;-64
2021/06/12 02:45:43;;;;;;;38.30;17.92;;;19.20;99.90;;;;;;4987756;28;20034;-64
2021/06/12 02:48:14;;;;;;;32.70;17.60;;;19.30;99.90;;;;;;4985797;28;20033;-64
2021/06/12 02:50:42;;;;;;;41.47;18.67;;;19.30;99.90;;;;;;4986403;28;20026;-64
2021/06/12 02:53:09;;;;;;;42.33;17.80;;;19.20;99.90;;;;;;4984353;28;20129;-64
2021/06/12 02:55:42;;;;;;;36.50;18.80;;;19.20;99.90;;;;;;4986453;28;20048;-64
2021/06/12 02:58:09;;;;;;;34.83;18.50;;;19.20;99.90;;;;;;4984198;28;20493;-64
2021/06/12 03:00:36;;;;;;;39.15;18.63;;;19.20;99.90;;;;;;4984860;28;20034;-64
2021/06/12 03:03:03;;;;;;;38.00;17.15;;;19.20;99.90;;;;;;4983165;28;20018;-64
2021/06/12 03:05:32;;;;;;;39.22;18.00;;;19.20;99.90;;;;;;4987072;28;20026;-64
2021/06/12 03:08:00;;;;;;;44.03;18.05;;;19.20;99.90;;;;;;4986719;28;20034;-64
2021/06/12 03:10:29;;;;;;;33.30;17.60;;;19.10;99.90;;;;;;4986583;28;20825;-64
2021/06/12 03:12:57;;;;;;;32.97;16.95;;;19.10;99.90;;;;;;4984031;28;20611;-64
2021/06/12 03:15:24;;;;;;;39.40;18.25;;;19.10;99.90;;;;;;4985721;28;20034;-63
2021/06/12 03:17:51;;;;;;;41.88;18.77;;;19.10;99.90;;;;;;4981021;28;20118;-65
2021/06/12 03:20:19;;;;;;;38.28;18.33;;;19.10;99.90;;;;;;4984358;28;20088;-65
2021/06/12 03:22:47;;;;;;;32.80;17.25;;;19.10;99.90;;;;;;4984038;28;20056;-64
2021/06/12 03:25:14;;;;;;;34.40;18.52;;;19.10;99.90;;;;;;4986070;28;20080;-64
2021/06/12 03:27:41;;;;;;;45.65;19.48;;;19.10;99.90;;;;;;4985133;28;20113;-64
2021/06/12 03:30:07;;;;;;;42.75;20.42;;;19.10;99.90;;;;;;4986362;28;20062;-64
2021/06/12 03:32:34;;;;;;;40.08;18.90;;;19.00;99.90;;;;;;4984283;28;20107;-63
2021/06/12 03:35:01;;;;;;;47.00;19.02;;;19.00;99.90;;;;;;4986017;28;20034;-64
2021/06/12 03:37:27;;;;;;;44.33;19.70;;;19.00;99.90;;;;;;4985872;28;20516;-64
2021/06/12 03:39:53;;;;;;;41.22;20.67;;;19.00;99.90;;;;;;4985643;28;20042;-62
2021/06/12 03:42:19;;;;;;;46.67;19.63;;;19.00;99.90;;;;;;4987121;28;20446;-64
2021/06/12 03:44:45;;;;;;;40.17;18.58;;;19.00;99.90;;;;;;4989368;28;20018;-64
2021/06/12 03:47:12;;;;;;;38.53;19.35;;;19.10;99.90;;;;;;4990062;28;20350;-63
2021/06/12 03:49:39;;;;;;;38.53;17.83;;;19.10;99.90;;;;;;4987627;28;20026;-64
2021/06/12 03:52:06;;;;;;;41.55;17.95;;;19.10;99.90;;;;;;4988366;28;20534;-64
2021/06/12 03:54:34;;;;;;;36.05;18.30;;;19.00;99.90;;;;;;4988256;28;20030;-63
2021/06/12 03:57:01;;;;;;;41.25;20.90;;;19.10;99.90;;;;;;4989154;28;20083;-64
2021/06/12 03:59:27;;;;;;;45.20;21.52;;;19.10;99.90;;;;;;4983807;28;20022;-65
2021/06/12 04:01:55;;;;;;;41.47;20.45;;;19.10;99.90;;;;;;4986692;28;20037;-63
2021/06/12 04:04:22;;;;;;;50.03;18.42;;;19.10;99.90;;;;;;4988542;28;20133;-66
2021/06/12 04:06:47;;;;;;;40.38;18.20;;;19.10;99.90;;;;;;4989231;28;20504;-65
2021/06/12 04:09:13;;;;;;;37.55;17.08;;;19.10;99.90;;;;;;4984721;28;20042;-65
2021/06/12 04:11:39;;;;;;;30.70;15.93;;;19.10;99.90;;;;;;4989542;28;20052;-65
2021/06/12 04:14:04;;;;;;;35.00;15.80;;;19.20;99.90;;;;;;4989077;28;20038;-65
2021/06/12 04:16:30;;;;;;;30.08;15.95;;;19.20;99.90;;;;;;4989832;28;20042;-65
2021/06/12 04:18:55;;;;;;;26.38;14.75;;;19.20;99.90;;;;;;4989109;28;20033;-65
2021/06/12 04:21:21;;;;;;;27.63;13.35;;;19.20;99.90;;;;;;4988850;28;20072;-65
2021/06/12 04:23:47;;;;;;;23.65;12.95;;;19.20;99.90;;;;;;4988919;28;20452;-64
2021/06/12 04:26:12;;;;;;;24.55;12.98;;;19.20;99.90;;;;;;4988920;28;20486;-65
2021/06/12 04:28:38;;;;;;;25.02;13.48;;;19.20;99.90;;;;;;4985676;28;20033;-65
2021/06/12 04:31:03;;;;;;;21.42;12.18;;;19.20;99.90;;;;;;4987683;28;20502;-65
2021/06/12 04:33:29;;;;;;;22.20;11.80;;;19.20;99.90;;;;;;4989164;28;20066;-65
2021/06/12 04:35:56;;;;;;;22.02;12.73;;;19.20;99.90;;;;;;4989371;28;20038;-65
2021/06/12 04:38:21;;;;;;;19.95;11.32;;;19.10;99.90;;;;;;4985204;28;20439;-65
2021/06/12 04:40:47;;;;;;;24.38;11.70;;;19.10;99.90;;;;;;4988887;28;20862;-66
2021/06/12 04:43:13;;;;;;;21.27;12.05;;;19.20;99.90;;;;;;4983090;28;20059;-65
2021/06/12 04:45:40;;;;;;;15.98;10.02;;;19.20;99.90;;;;;;4989107;28;20030;-65
2021/06/12 04:48:06;;;;;;;22.17;11.13;;;19.20;99.90;;;;;;4987219;28;20027;-65
2021/06/12 04:50:35;;;;;;;20.73;11.88;;;19.20;99.90;;;;;;4988797;28;20041;-63
2021/06/12 04:53:02;;;;;;;20.90;10.95;;;19.20;99.90;;;;;;4988015;28;20430;-66
2021/06/12 04:55:27;;;;;;;20.63;11.05;;;19.30;99.90;;;;;;4988786;28;20174;-66
2021/06/12 04:57:53;;;;;;;19.70;11.00;;;19.30;99.90;;;;;;4988219;28;20030;-64
2021/06/12 05:00:19;;;;;;;17.45;10.07;;;19.20;99.90;;;;;;4988310;28;20117;-66
2021/06/12 05:02:45;;;;;;;21.10;11.05;;;19.20;99.90;;;;;;4987635;28;20485;-66
2021/06/12 05:05:11;;;;;;;23.52;11.13;;;19.20;99.90;;;;;;4988462;28;20176;-66
2021/06/12 05:07:37;;;;;;;18.75;9.80;;;19.20;99.90;;;;;;4987427;28;20030;-65
2021/06/12 05:10:07;;;;;;;18.30;9.68;;;19.20;99.90;;;;;;4987528;28;20045;-65
2021/06/12 05:12:33;;;;;;;20.20;9.70;;;19.30;99.90;;;;;;4986491;28;20030;-65
2021/06/12 05:15:01;;;;;;;14.68;8.07;;;19.20;99.90;;;;;;4988448;28;20038;-65
2021/06/12 05:17:28;;;;;;;12.35;8.27;;;19.30;99.90;;;;;;4989128;28;20130;-65
2021/06/12 05:19:54;;;;;;;11.93;7.47;;;19.30;99.90;;;;;;4987324;28;20030;-65
2021/06/12 05:22:25;;;;;;;15.10;7.85;;;19.30;99.90;;;;;;4987432;28;20031;-65
2021/06/12 05:24:54;;;;;;;10.85;6.70;;;19.40;99.90;;;;;;4986881;28;20033;-65
2021/06/12 05:27:20;;;;;;;14.80;6.72;;;19.40;99.90;;;;;;4985711;28;20026;-65
2021/06/12 05:29:46;;;;;;;10.68;6.32;;;19.50;99.90;;;;;;4992694;28;20042;-65
2021/06/12 05:32:12;;;;;;;9.63;6.60;;;19.50;99.90;;;;;;4985938;28;20018;-66
2021/06/12 05:34:38;;;;;;;17.63;6.90;;;19.60;99.90;;;;;;4987542;28;20041;-58
2021/06/12 05:37:04;;;;;;;11.70;6.88;;;19.60;99.90;;;;;;4992010;28;20027;-58
2021/06/12 05:39:30;;;;;;;12.93;5.90;;;19.60;99.90;;;;;;4983780;28;20045;-59
2021/06/12 05:41:56;;;;;;;12.48;6.15;;;19.60;99.90;;;;;;5011560;28;20026;-58
2021/06/12 05:44:21;;;;;;;12.57;5.88;;;19.60;99.90;;;;;;4983857;28;20075;-56
2021/06/12 05:46:49;;;;;;;7.82;5.38;;;19.60;99.90;;;;;;4985925;28;20059;-60
2021/06/12 05:49:15;;;;;;;9.65;5.05;;;19.60;99.90;;;;;;4979471;28;20018;-55
2021/06/12 05:51:41;;;;;;;9.30;5.20;;;19.60;99.90;;;;;;4985978;28;20084;-58
2021/06/12 05:54:07;;;;;;;12.68;5.75;;;19.60;99.90;;;;;;4984516;28;20030;-56
2021/06/12 05:56:32;;;;;;;9.25;5.68;;;19.60;99.90;;;;;;4986416;28;20043;-54
2021/06/12 05:58:58;;;;;;;13.93;5.82;;;19.70;99.90;;;;;;4983477;28;20105;-52
2021/06/12 06:01:23;;;;;;;14.63;6.35;;;19.70;99.90;;;;;;4980002;28;20118;-54
2021/06/12 06:03:49;;;;;;;12.48;5.75;;;19.80;99.90;;;;;;4981984;28;20033;-53
2021/06/12 06:06:15;;;;;;;19.83;6.40;;;19.90;99.90;;;;;;4987366;28;20054;-56
2021/06/12 06:08:40;;;;;;;16.58;6.20;;;19.90;99.90;;;;;;4987221;28;20026;-54
2021/06/12 06:11:06;;;;;;;12.02;5.68;;;19.90;99.90;;;;;;4985515;28;20087;-56
2021/06/12 06:13:49;;;;;;;6.88;4.88;;;19.90;99.90;;;;;;4985772;28;20026;-54
2021/06/12 06:16:15;;;;;;;13.20;4.72;;;19.80;99.90;;;;;;4985434;28;20137;-55
2021/06/12 06:18:41;;;;;;;8.77;3.90;;;19.80;99.90;;;;;;4987007;28;20106;-56
2021/06/12 06:21:08;;;;;;;6.13;4.28;;;19.80;99.90;;;;;;4986640;28;20023;-54
2021/06/12 06:23:35;;;;;;;10.68;4.25;;;19.80;99.90;;;;;;4988206;28;20041;-54
2021/06/12 06:26:01;;;;;;;4.97;2.75;;;20.00;99.90;;;;;;4986813;28;20018;-58
2021/06/12 06:28:27;;;;;;;4.53;3.17;;;20.10;99.90;;;;;;4985345;28;20523;-54
2021/06/12 06:30:53;;;;;;;5.43;2.80;;;20.20;99.90;;;;;;4985613;28;20095;-54
2021/06/12 06:33:21;;;;;;;4.13;2.05;;;20.30;99.90;;;;;;4986052;28;20030;-55
2021/06/12 06:35:46;;;;;;;5.90;2.80;;;20.40;99.90;;;;;;4998108;28;20030;-54
2021/06/12 06:38:12;;;;;;;15.80;2.90;;;20.40;99.90;;;;;;4986948;28;20046;-55
2021/06/12 06:40:37;;;;;;;8.65;2.70;;;20.40;99.90;;;;;;4985895;28;20098;-58
2021/06/12 06:43:03;;;;;;;7.00;3.60;;;20.40;99.90;;;;;;4985038;28;20026;-57
2021/06/12 06:45:29;;;;;;;6.60;3.05;;;20.30;99.90;;;;;;4990123;28;20464;-58
2021/06/12 06:47:54;;;;;;;7.55;2.83;;;20.30;99.90;;;;;;4991952;28;20022;-58
2021/06/12 06:50:20;;;;;;;5.90;2.72;;;20.40;99.90;;;;;;4986130;28;20474;-59
2021/06/12 06:52:48;;;;;;;8.90;2.50;;;20.40;99.90;;;;;;4987553;28;20604;-58
2021/06/12 06:55:14;;;;;;;6.05;2.90;;;20.50;99.90;;;;;;4989079;28;20489;-59
2021/06/12 06:57:40;;;;;;;6.25;2.80;;;20.50;99.90;;;;;;4988352;28;20166;-62
2021/06/12 07:00:06;;;;;;;8.45;2.88;;;20.70;99.90;;;;;;4990449;28;20193;-61
2021/06/12 07:02:32;;;;;;;4.95;2.70;;;20.60;99.90;;;;;;4996968;28;20037;-59
2021/06/12 07:04:57;;;;;;;5.88;2.55;;;20.60;99.90;;;;;;4986625;28;20034;-58
2021/06/12 07:07:23;;;;;;;6.00;3.65;;;20.60;99.90;;;;;;4992475;28;20506;-58
2021/06/12 07:09:49;;;;;;;8.43;3.40;;;20.50;99.90;;;;;;4987120;28;20432;-58
2021/06/12 07:12:15;;;;;;;6.90;3.35;;;20.50;99.90;;;;;;4986820;28;20054;-59
2021/06/12 07:14:43;;;;;;;6.00;3.22;;;20.40;99.90;;;;;;4987055;28;20058;-57
2021/06/12 07:17:09;;;;;;;5.95;3.47;;;20.50;99.90;;;;;;4986633;28;20102;-54
2021/06/12 07:19:35;;;;;;;6.57;2.95;;;20.50;99.90;;;;;;4984851;28;20110;-55
2021/06/12 07:22:00;;;;;;;11.23;3.58;;;20.50;99.90;;;;;;4985591;28;20058;-58
2021/06/12 07:24:26;;;;;;;4.93;2.80;;;20.60;99.90;;;;;;4991258;28;20034;-54
2021/06/12 07:26:51;;;;;;;6.25;3.05;;;20.70;99.90;;;;;;4984370;28;20026;-58
2021/06/12 07:29:17;;;;;;;8.40;3.72;;;20.70;99.90;;;;;;4983835;28;20102;-56
2021/06/12 07:31:42;;;;;;;6.22;4.28;;;20.60;99.90;;;;;;4984192;28;20916;-59
2021/06/12 07:34:10;;;;;;;6.43;4.40;;;20.60;99.90;;;;;;4985050;28;20042;-58
2021/06/12 07:36:36;;;;;;;11.43;4.10;;;20.50;99.90;;;;;;4984763;28;20036;-56
2021/06/12 07:39:03;;;;;;;7.45;4.35;;;20.50;99.90;;;;;;4985932;28;20038;-57
2021/06/12 07:41:30;;;;;;;9.02;4.97;;;20.70;99.90;;;;;;4984655;28;20062;-59
2021/06/12 07:43:55;;;;;;;7.47;4.45;;;20.70;99.90;;;;;;4985789;28;20084;-57
2021/06/12 07:46:21;;;;;;;13.88;5.93;;;20.80;99.90;;;;;;4986921;28;20038;-58
2021/06/12 07:48:47;;;;;;;7.47;5.15;;;20.80;99.90;;;;;;4986305;28;20022;-57
2021/06/12 07:51:13;;;;;;;7.18;4.50;;;20.80;99.90;;;;;;4986266;28;20404;-58
2021/06/12 07:53:38;;;;;;;10.43;5.75;;;21.00;99.90;;;;;;4986342;28;20064;-55
2021/06/12 07:56:04;;;;;;;13.10;6.55;;;21.00;99.90;;;;;;4987022;28;20502;-58
2021/06/12 07:58:30;;;;;;;14.70;6.70;;;20.90;99.90;;;;;;4986519;28;20030;-55
2021/06/12 08:00:55;;;;;;;13.70;7.65;;;20.90;99.90;;;;;;4986074;28;20030;-58
2021/06/12 08:03:21;;;;;;;12.70;8.52;;;21.10;99.90;;;;;;4986436;28;20428;-57
2021/06/12 08:05:47;;;;;;;11.35;8.63;;;20.90;99.90;;;;;;4988275;28;20053;-59
2021/06/12 08:08:12;;;;;;;15.73;10.25;;;20.90;99.90;;;;;;4986082;28;20079;-58
2021/06/12 08:10:38;;;;;;;13.82;9.35;;;20.90;99.90;;;;;;4986341;28;20087;-58
2021/06/12 08:13:03;;;;;;;14.80;9.80;;;21.10;99.90;;;;;;4986381;28;20442;-59
2021/06/12 08:15:30;;;;;;;14.75;9.60;;;21.20;99.90;;;;;;4987141;28;20656;-59
2021/06/12 08:17:55;;;;;;;16.70;11.25;;;21.20;99.90;;;;;;4986728;28;20434;-59
2021/06/12 08:20:23;;;;;;;15.18;10.27;;;21.10;99.90;;;;;;4986449;28;20035;-52
2021/06/12 08:22:49;;;;;;;13.57;9.23;;;20.90;99.90;;;;;;4986478;28;20405;-57
2021/06/12 08:25:15;;;;;;;14.70;10.10;;;21.10;99.90;;;;;;4985729;28;20022;-58
2021/06/12 08:27:40;;;;;;;16.38;9.57;;;20.90;99.90;;;;;;4987089;28;20434;-57
2021/06/12 08:30:07;;;;;;;12.18;8.77;;;21.00;99.90;;;;;;4990306;28;20457;-55
2021/06/12 08:32:33;;;;;;;12.68;8.77;;;21.00;99.90;;;;;;4988957;28;20056;-56
2021/06/12 08:34:58;;;;;;;11.30;8.85;;;21.20;99.90;;;;;;4989780;28;20474;-58
2021/06/12 08:37:25;;;;;;;10.93;9.25;;;21.10;99.90;;;;;;4993028;28;20031;-59
2021/06/12 08:39:52;;;;;;;12.27;10.00;;;21.10;99.90;;;;;;4989445;28;20026;-55
2021/06/12 08:42:18;;;;;;;13.38;9.88;;;20.90;99.90;;;;;;4988763;28;20385;-58
2021/06/12 08:44:44;;;;;;;13.13;9.35;;;20.90;99.90;;;;;;4989438;28;20023;-56
2021/06/12 08:47:11;;;;;;;13.77;9.55;;;20.90;99.90;;;;;;4988176;28;20022;-59
2021/06/12 08:49:37;;;;;;;13.77;10.60;;;20.90;99.90;;;;;;4988143;28;20091;-55
2021/06/12 08:52:03;;;;;;;13.82;10.52;;;20.80;99.90;;;;;;4987785;28;20075;-56
2021/06/12 08:54:29;;;;;;;15.40;11.10;;;20.60;99.90;;;;;;4992149;28;20022;-58
2021/06/12 08:56:55;;;;;;;13.13;10.98;;;20.70;99.90;;;;;;4989698;28;20397;-58
2021/06/12 08:59:21;;;;;;;16.92;11.90;;;20.60;99.90;;;;;;4989292;28;20065;-56
2021/06/12 09:01:47;;;;;;;16.50;12.10;;;20.50;99.90;;;;;;4987589;28;20046;-56
2021/06/12 09:04:29;;;;;;;13.43;11.27;;;20.40;99.90;;;;;;4988897;28;20150;-59
2021/06/12 09:07:19;;;;;;;15.45;12.32;;;20.40;99.90;;;;;;4987153;28;20472;-59
2021/06/12 09:09:46;;;;;;;20.92;13.82;;;20.20;99.90;;;;;;4985549;28;20026;-54
2021/06/12 09:12:12;;;;;;;19.20;13.02;;;20.10;99.90;;;;;;4988915;28;20103;-56
2021/06/12 09:14:38;;;;;;;17.80;12.00;;;20.00;99.90;;;;;;4989616;28;20094;-58
2021/06/12 09:17:04;;;;;;;19.67;14.27;;;19.90;99.90;;;;;;4987731;28;20168;-58
2021/06/12 09:19:38;;;;;;;20.27;13.70;;;19.70;99.90;;;;;;4986390;28;20034;-56
2021/06/12 09:22:04;;;;;;;18.42;13.18;;;19.50;99.90;;;;;;4987374;28;20516;-56
2021/06/12 09:24:41;;;;;;;19.95;14.07;;;19.30;99.90;;;;;;4987146;28;20039;-56
2021/06/12 09:27:16;;;;;;;21.75;14.82;;;19.30;99.90;;;;;;4987540;28;20029;-56
2021/06/12 09:29:44;;;;;;;26.33;15.68;;;19.40;99.90;;;;;;4988659;28;20026;-59
2021/06/12 09:32:16;;;;;;;22.25;15.45;;;19.20;99.90;;;;;;4984603;28;20027;-56
2021/06/12 09:34:43;;;;;;;16.77;13.30;;;19.30;99.90;;;;;;4986272;28;20031;-55
2021/06/12 09:37:10;;;;;;;23.85;14.80;;;19.30;99.90;;;;;;4988279;28;20022;-54
2021/06/12 09:39:35;;;;;;;24.65;14.93;;;19.10;99.90;;;;;;4988450;28;20416;-59
2021/06/12 09:42:01;;;;;;;23.83;16.55;;;19.10;99.90;;;;;;4991722;28;20030;-57
2021/06/12 09:44:41;;;;;;;23.02;14.68;;;19.10;99.90;;;;;;4985802;28;20046;-58
2021/06/12 09:47:15;;;;;;;21.13;14.63;;;19.20;99.90;;;;;;4981617;28;20023;-55
2021/06/12 09:49:41;;;;;;;20.75;13.23;;;19.30;99.90;;;;;;4981150;28;20110;-52
2021/06/12 09:52:15;;;;;;;19.58;14.63;;;19.50;99.90;;;;;;4987496;28;20104;-55
2021/06/12 09:54:51;;;;;;;28.58;16.63;;;19.60;99.90;;;;;;4984241;28;20076;-52
2021/06/12 09:57:20;;;;;;;23.55;15.75;;;19.60;99.90;;;;;;4987779;28;20054;-53
2021/06/12 09:59:49;;;;;;;24.17;15.85;;;19.80;99.90;;;;;;4982838;28;20171;-55
2021/06/12 10:02:38;;;;;;;18.73;14.23;;;19.70;99.90;;;;;;4983895;28;20049;-54
2021/06/12 10:05:06;;;;;;;28.33;17.08;;;19.80;99.90;;;;;;4984306;28;20436;-55
2021/06/12 10:07:32;;;;;;;20.70;14.85;;;19.70;99.90;;;;;;4983484;28;20037;-55
2021/06/12 10:10:05;;;;;;;24.52;15.98;;;19.80;99.90;;;;;;4989606;28;20038;-55
2021/06/12 10:12:31;;;;;;;25.85;17.35;;;19.90;99.90;;;;;;4986955;28;20095;-58
2021/06/12 10:14:57;;;;;;;26.08;15.93;;;20.00;99.90;;;;;;4979401;28;20042;-57
2021/06/12 10:17:24;;;;;;;24.02;14.63;;;19.90;99.90;;;;;;4978598;28;20554;-57
2021/06/12 10:19:56;;;;;;;20.70;15.13;;;20.00;99.90;;;;;;4981476;28;20050;-55
2021/06/12 10:22:22;;;;;;;23.15;14.55;;;19.80;99.90;;;;;;4986103;28;20118;-55
2021/06/12 10:24:49;;;;;;;28.35;16.33;;;19.90;99.90;;;;;;4989977;28;20034;-54
2021/06/12 10:27:16;;;;;;;24.63;15.05;;;19.90;99.90;;;;;;4988005;28;20400;-53
2021/06/12 10:29:43;;;;;;;22.27;14.73;;;19.90;99.90;;;;;;4981734;28;20402;-55
2021/06/12 10:32:11;;;;;;;22.88;14.05;;;20.00;99.90;;;;;;4984309;28;20615;-58
2021/06/12 10:34:39;;;;;;;22.88;15.60;;;20.10;99.90;;;;;;4982514;28;20023;-59
2021/06/12 10:37:07;;;;;;;26.77;14.25;;;20.10;99.90;;;;;;4985181;28;20026;-57
2021/06/12 10:39:38;;;;;;;19.88;13.55;;;20.30;99.90;;;;;;4982083;28;20485;-56
2021/06/12 10:42:16;;;;;;;22.90;14.60;;;20.40;99.90;;;;;;4989253;28;20029;-57
2021/06/12 10:44:45;;;;;;;18.80;13.38;;;20.30;99.90;;;;;;4983847;28;20027;-54
2021/06/12 10:47:11;;;;;;;16.13;12.27;;;20.30;99.90;;;;;;4973345;28;20777;-57
2021/06/12 10:49:37;;;;;;;17.98;12.05;;;20.60;99.90;;;;;;4980337;28;20018;-55
2021/06/12 10:52:05;;;;;;;20.52;10.63;;;21.00;99.90;;;;;;4986996;28;20018;-56
2021/06/12 10:54:35;;;;;;;47.60;27.35;;;21.20;99.90;;;;;;4987095;28;20060;-54
2021/06/12 10:57:16;;;;;;;18.20;10.60;;;22.00;99.90;;;;;;4987647;28;20075;-54
2021/06/12 11:00:05;;;;;;;16.40;10.70;;;22.60;99.90;;;;;;4982375;28;20121;-57
2021/06/12 11:02:42;;;;;;;29.63;19.13;;;22.90;99.90;;;;;;4988870;28;20701;-58
2021/06/12 11:05:29;;;;;;;14.55;9.90;;;23.80;99.90;;;;;;4984457;28;20031;-61
2021/06/12 11:08:14;;;;;;;16.13;11.23;;;23.50;99.90;;;;;;4982101;28;20744;-59
2021/06/12 11:10:40;;;;;;;58.85;30.50;;;23.50;99.90;;;;;;4984529;28;20489;-56
2021/06/12 11:13:26;;;;;;;17.05;12.27;;;23.60;99.90;;;;;;4986540;28;20041;-54
2021/06/12 11:15:53;;;;;;;24.33;13.45;;;22.60;99.90;;;;;;4984679;28;20052;-61
2021/06/12 11:18:21;;;;;;;46.83;23.13;;;22.40;99.90;;;;;;4978563;28;20247;-54
2021/06/12 11:21:07;;;;;;;48.75;30.33;;;23.20;99.90;;;;;;4980704;28;20041;-54
2021/06/12 11:23:46;;;;;;;49.58;23.98;;;23.90;99.90;;;;;;4983232;28;20025;-52
2021/06/12 11:26:14;;;;;;;87.22;45.33;;;23.40;99.90;;;;;;4990718;28;20439;-53
2021/06/12 11:28:41;;;;;;;37.05;23.88;;;23.50;99.90;;;;;;4984925;28;20084;-56
2021/06/12 11:31:22;;;;;;;21.70;13.02;;;23.90;99.90;;;;;;4989142;28;20451;-49
2021/06/12 11:34:18;;;;;;;22.08;14.23;;;23.90;99.90;;;;;;4982955;28;20044;-57
2021/06/12 11:36:46;;;;;;;22.75;12.77;;;23.70;99.90;;;;;;4983430;28;20031;-55
2021/06/12 11:39:12;;;;;;;237.32;201.23;;;23.70;99.90;;;;;;4985475;28;20122;-55
2021/06/12 11:41:38;;;;;;;155.07;119.28;;;24.10;99.90;;;;;;4986752;28;20076;-58
2021/06/12 11:44:04;;;;;;;39.60;24.58;;;24.10;99.90;;;;;;4985166;28;20113;-58
2021/06/12 11:46:33;;;;;;;44.97;31.30;;;24.20;99.90;;;;;;4985018;28;20382;-59
2021/06/12 11:49:03;;;;;;;20.10;12.43;;;24.20;99.90;;;;;;4981563;28;20035;-55
2021/06/12 11:51:32;;;;;;;22.77;12.95;;;23.90;99.90;;;;;;4982326;28;20042;-56
2021/06/12 11:54:16;;;;;;;18.77;11.88;;;24.10;99.90;;;;;;5007838;28;20030;-54
2021/06/12 11:56:49;;;;;;;19.48;13.00;;;24.30;99.90;;;;;;5016001;28;20020;-53
2021/06/12 11:59:17;;;;;;;21.63;12.40;;;24.20;99.90;;;;;;4989391;28;20039;-55
2021/06/12 12:02:05;;;;;;;20.10;13.15;;;23.90;99.90;;;;;;4978641;28;20908;-53
2021/06/12 12:04:34;;;;;;;21.23;12.48;;;23.70;99.90;;;;;;4983373;28;20080;-53
2021/06/12 12:07:02;;;;;;;18.20;12.18;;;23.80;99.90;;;;;;4985878;28;20041;-54
2021/06/12 12:09:54;;;;;;;21.20;12.10;;;23.90;99.90;;;;;;4986590;28;20026;-57
2021/06/12 12:12:21;;;;;;;22.67;13.00;;;23.90;99.90;;;;;;4990138;28;20053;-57
2021/06/12 12:14:51;;;;;;;23.63;15.50;;;23.60;99.90;;;;;;4991246;28;20041;-58
2021/06/12 12:17:25;;;;;;;21.73;14.27;;;23.70;99.90;;;;;;4983448;28;20019;-57
2021/06/12 12:20:07;;;;;;;19.10;12.50;;;23.70;99.90;;;;;;4987003;28;20465;-55
2021/06/12 12:22:37;;;;;;;27.63;13.50;;;23.80;99.90;;;;;;4985851;28;20496;-58
2021/06/12 12:25:04;;;;;;;23.20;13.73;;;23.90;99.90;;;;;;4985956;28;20023;-54
2021/06/12 12:27:30;;;;;;;20.30;12.77;;;23.90;99.90;;;;;;4990372;28;20022;-54
2021/06/12 12:29:56;;;;;;;21.48;12.80;;;23.80;99.90;;;;;;4987950;28;20030;-56
2021/06/12 12:32:23;;;;;;;23.15;13.68;;;23.60;99.90;;;;;;4987368;28;20127;-56
2021/06/12 12:34:48;;;;;;;21.70;14.23;;;23.90;99.90;;;;;;4985332;28;20041;-54
2021/06/12 12:37:22;;;;;;;17.92;12.32;;;24.10;99.90;;;;;;4984727;28;20023;-53
2021/06/12 12:39:50;;;;;;;19.17;13.40;;;24.10;99.90;;;;;;4985484;28;20103;-55